Time;durP1;ratioP1;P1;durP2;ratioP2;P2;SDS_P1;SDS_P2;PMS_P1;PMS_P2;Temp;Humidity;BMP_temperature;BMP_pressure;BME280_temperature;BME280_humidity;BME280_pressure;Samples;Min_cycle;Max_cycle;Signal;HPM_P1;HPM_P2
2021/11/18 00:02:17;;;;;;;26.67;9.10;;;;;;;;;;5035185;28;20029;-86
2021/11/18 00:04:42;;;;;;;32.03;9.37;;;;;;;;;;5066875;28;20029;-87
2021/11/18 00:07:07;;;;;;;31.63;8.83;;;;;;;;;;5066574;28;20043;-87
2021/11/18 00:09:33;;;;;;;22.83;8.13;;;;;;;;;;5034863;28;20059;-87
2021/11/18 00:11:59;;;;;;;21.63;7.10;;;;;;;;;;5066996;28;20014;-86
2021/11/18 00:14:24;;;;;;;20.47;7.20;;;;;;;;;;5066758;28;20029;-87
2021/11/18 00:16:50;;;;;;;14.67;6.33;;;;;;;;;;5067043;28;20026;-87
2021/11/18 00:19:15;;;;;;;17.37;6.40;;;;;;;;;;5066855;28;20108;-87
2021/11/18 00:21:41;;;;;;;15.30;6.53;;;;;;;;;;5067127;28;20063;-86
2021/11/18 00:24:08;;;;;;;21.93;6.33;;;;;;;;;;5066844;28;20025;-87
2021/11/18 00:26:33;;;;;;;16.13;6.60;;;;;;;;;;5066757;28;20052;-86
2021/11/18 00:28:59;;;;;;;18.67;6.90;;;;;;;;;;5068040;28;20103;-86
2021/11/18 00:31:26;;;;;;;16.07;6.27;;;;;;;;;;5040021;28;20033;-87
2021/11/18 00:33:51;;;;;;;28.77;8.10;;;;;;;;;;5066402;28;20045;-86
2021/11/18 00:36:17;;;;;;;25.57;7.63;;;;;;;;;;5066781;28;20107;-86
2021/11/18 00:38:44;;;;;;;22.20;7.20;;;;;;;;;;5066567;28;20022;-86
2021/11/18 00:41:09;;;;;;;25.63;7.33;;;;;;;;;;5032902;28;20354;-86
2021/11/18 00:43:34;;;;;;;26.63;7.37;;;;;;;;;;5066579;28;20071;-87
2021/11/18 00:45:59;;;;;;;22.87;7.23;;;;;;;;;;5066311;28;20072;-86
2021/11/18 00:48:25;;;;;;;28.63;7.10;;;;;;;;;;5066127;28;20022;-86
2021/11/18 00:50:54;;;;;;;16.03;6.57;;;;;;;;;;5066159;28;20021;-87
2021/11/18 00:53:20;;;;;;;16.37;5.53;;;;;;;;;;5066097;28;20041;-87
2021/11/18 00:55:45;;;;;;;18.70;6.90;;;;;;;;;;5066376;28;20056;-87
2021/11/18 00:58:11;;;;;;;14.17;5.80;;;;;;;;;;5032745;28;20018;-86
2021/11/18 01:00:36;;;;;;;14.97;5.57;;;;;;;;;;5061051;28;20388;-86
2021/11/18 01:03:02;;;;;;;16.43;6.17;;;;;;;;;;5031375;28;20056;-87
2021/11/18 01:05:29;;;;;;;19.33;7.07;;;;;;;;;;5064177;28;20032;-86
2021/11/18 01:07:55;;;;;;;17.07;5.90;;;;;;;;;;5064425;28;20029;-86
2021/11/18 01:10:21;;;;;;;22.23;6.30;;;;;;;;;;5064658;28;20029;-87
2021/11/18 01:12:46;;;;;;;26.20;7.13;;;;;;;;;;5059407;28;20094;-86
2021/11/18 01:15:14;;;;;;;18.70;6.57;;;;;;;;;;5043622;28;20017;-86
2021/11/18 01:17:39;;;;;;;17.70;6.60;;;;;;;;;;5033814;28;20045;-87
2021/11/18 01:20:06;;;;;;;17.23;6.97;;;;;;;;;;5065275;28;20420;-87
2021/11/18 01:22:31;;;;;;;11.87;4.53;;;;;;;;;;5064434;28;20417;-87
2021/11/18 01:24:57;;;;;;;9.43;4.47;;;;;;;;;;5035359;28;20032;-87
2021/11/18 01:27:22;;;;;;;13.60;5.30;;;;;;;;;;5033865;28;20029;-86
2021/11/18 01:29:47;;;;;;;13.60;5.77;;;;;;;;;;5033426;28;20063;-86
2021/11/18 01:32:13;;;;;;;17.27;6.43;;;;;;;;;;5032938;28;20109;-87
2021/11/18 01:34:38;;;;;;;19.97;6.67;;;;;;;;;;5033416;28;20041;-86
2021/11/18 01:37:03;;;;;;;20.77;6.50;;;;;;;;;;5032054;28;20028;-87
2021/11/18 01:39:28;;;;;;;18.40;6.83;;;;;;;;;;5043104;28;20014;-86
2021/11/18 01:41:55;;;;;;;14.93;6.43;;;;;;;;;;5065423;28;20063;-86
2021/11/18 01:44:38;;;;;;;18.20;6.77;;;;;;;;;;5065076;28;20048;-87
2021/11/18 01:47:04;;;;;;;18.07;7.00;;;;;;;;;;5065168;28;20067;-86
2021/11/18 01:49:30;;;;;;;14.10;6.10;;;;;;;;;;5070489;28;20020;-86
2021/11/18 01:51:57;;;;;;;18.77;6.77;;;;;;;;;;5084795;28;20036;-87
2021/11/18 01:54:25;;;;;;;17.00;6.50;;;;;;;;;;5085405;28;20017;-86
2021/11/18 01:56:51;;;;;;;15.00;5.53;;;;;;;;;;5052574;28;20025;-86
2021/11/18 01:59:37;;;;;;;9.83;4.73;;;;;;;;;;5078823;28;20020;-86
2021/11/18 02:02:03;;;;;;;9.87;5.17;;;;;;;;;;5049691;28;20041;-86
2021/11/18 02:04:30;;;;;;;24.33;7.17;;;;;;;;;;5083477;28;20033;-86
2021/11/18 02:06:57;;;;;;;18.70;7.27;;;;;;;;;;5083490;28;20057;-87
2021/11/18 02:09:24;;;;;;;12.27;5.57;;;;;;;;;;5084441;28;20067;-86
2021/11/18 02:11:54;;;;;;;17.23;6.80;;;;;;;;;;5083487;28;20082;-86
2021/11/18 02:14:21;;;;;;;17.63;6.13;;;;;;;;;;5083235;28;20029;-86
2021/11/18 02:16:47;;;;;;;20.13;7.40;;;;;;;;;;5083447;28;20383;-86
2021/11/18 02:19:12;;;;;;;16.20;6.40;;;;;;;;;;5051311;28;20100;-87
2021/11/18 02:21:38;;;;;;;18.40;6.77;;;;;;;;;;5083567;28;20036;-86
2021/11/18 02:24:05;;;;;;;15.63;6.33;;;;;;;;;;5042603;28;20393;-87
2021/11/18 02:26:30;;;;;;;13.77;5.77;;;;;;;;;;5085083;28;20025;-87
2021/11/18 02:28:57;;;;;;;14.73;5.87;;;;;;;;;;5049492;28;20120;-86
2021/11/18 02:31:22;;;;;;;12.67;6.27;;;;;;;;;;5084339;28;20025;-86
2021/11/18 02:33:48;;;;;;;16.60;6.37;;;;;;;;;;5051550;28;20071;-86
2021/11/18 02:36:13;;;;;;;11.60;6.20;;;;;;;;;;5084815;28;20021;-86
2021/11/18 02:38:39;;;;;;;19.00;5.97;;;;;;;;;;5085066;28;20028;-86
2021/11/18 02:41:06;;;;;;;22.63;7.07;;;;;;;;;;5052533;28;20021;-87
2021/11/18 02:43:31;;;;;;;22.33;7.63;;;;;;;;;;5084860;28;20111;-86
2021/11/18 02:45:56;;;;;;;15.37;6.30;;;;;;;;;;5084666;28;20175;-86
2021/11/18 02:48:22;;;;;;;15.83;5.80;;;;;;;;;;5045237;28;20091;-86
2021/11/18 02:50:50;;;;;;;14.40;6.33;;;;;;;;;;5079334;28;20554;-87
2021/11/18 02:53:15;;;;;;;18.20;6.40;;;;;;;;;;5084632;28;20387;-86
2021/11/18 02:55:43;;;;;;;16.23;6.80;;;;;;;;;;5051274;28;20100;-86
2021/11/18 02:58:08;;;;;;;19.70;7.27;;;;;;;;;;5079714;28;20483;-86
2021/11/18 03:00:43;;;;;;;19.53;7.30;;;;;;;;;;5041430;28;20017;-86
2021/11/18 03:03:08;;;;;;;12.63;6.40;;;;;;;;;;5082113;28;20025;-87
2021/11/18 03:05:34;;;;;;;19.57;6.47;;;;;;;;;;5044213;28;20021;-86
2021/11/18 03:07:59;;;;;;;11.73;6.23;;;;;;;;;;5054609;28;20444;-86
2021/11/18 03:10:25;;;;;;;13.07;5.30;;;;;;;;;;5088249;28;20033;-86
2021/11/18 03:12:51;;;;;;;14.57;6.10;;;;;;;;;;5086923;28;20052;-86
2021/11/18 03:15:16;;;;;;;12.63;5.60;;;;;;;;;;5073172;28;20037;-86
2021/11/18 03:17:42;;;;;;;16.30;6.73;;;;;;;;;;5054879;28;20025;-86
2021/11/18 03:20:09;;;;;;;12.00;5.83;;;;;;;;;;5055771;28;20031;-86
2021/11/18 03:22:35;;;;;;;25.70;6.30;;;;;;;;;;5078844;28;20440;-86
2021/11/18 03:25:00;;;;;;;16.50;6.03;;;;;;;;;;5049956;28;20104;-87
2021/11/18 03:27:25;;;;;;;17.53;6.47;;;;;;;;;;5088012;28;20017;-86
2021/11/18 03:29:51;;;;;;;13.30;5.97;;;;;;;;;;5054521;28;20032;-86
2021/11/18 03:32:16;;;;;;;16.23;6.20;;;;;;;;;;5085948;28;20380;-86
2021/11/18 03:34:41;;;;;;;22.17;7.80;;;;;;;;;;5076935;28;20016;-86
2021/11/18 03:37:06;;;;;;;19.00;6.57;;;;;;;;;;5051252;28;20108;-87
2021/11/18 03:39:32;;;;;;;18.50;7.00;;;;;;;;;;5087780;28;20048;-86
2021/11/18 03:41:59;;;;;;;18.77;6.83;;;;;;;;;;5087505;28;20028;-86
2021/11/18 03:44:25;;;;;;;18.70;6.73;;;;;;;;;;5087851;28;20025;-87
2021/11/18 03:46:52;;;;;;;14.03;6.67;;;;;;;;;;5087735;28;20465;-86
2021/11/18 03:49:17;;;;;;;14.57;6.27;;;;;;;;;;5075100;28;20028;-86
2021/11/18 03:51:43;;;;;;;21.47;7.03;;;;;;;;;;5075390;28;20104;-86
2021/11/18 03:54:09;;;;;;;20.13;6.87;;;;;;;;;;5037422;28;20021;-87
2021/11/18 03:56:39;;;;;;;22.37;6.63;;;;;;;;;;5081942;28;20143;-87
2021/11/18 03:59:24;;;;;;;22.00;6.23;;;;;;;;;;5047162;28;20009;-87
2021/11/18 04:01:51;;;;;;;20.03;7.10;;;;;;;;;;5051228;28;20561;-87
2021/11/18 04:04:18;;;;;;;16.03;6.63;;;;;;;;;;5047830;28;20017;-86
2021/11/18 04:06:44;;;;;;;14.23;6.20;;;;;;;;;;5087200;28;20091;-87
2021/11/18 04:09:09;;;;;;;14.13;6.03;;;;;;;;;;5087653;28;20024;-86
2021/11/18 04:11:35;;;;;;;15.50;6.87;;;;;;;;;;5087037;28;20033;-87
2021/11/18 04:14:01;;;;;;;21.03;7.50;;;;;;;;;;5053276;28;20013;-86
2021/11/18 04:16:26;;;;;;;16.90;6.57;;;;;;;;;;5054483;28;20052;-86
2021/11/18 04:18:52;;;;;;;19.27;7.20;;;;;;;;;;5076060;28;20040;-87
2021/11/18 04:21:17;;;;;;;24.03;8.20;;;;;;;;;;5086741;28;20021;-87
2021/11/18 04:23:43;;;;;;;22.60;7.70;;;;;;;;;;5086912;28;20017;-86
2021/11/18 04:26:08;;;;;;;23.17;7.57;;;;;;;;;;5086794;28;20036;-86
2021/11/18 04:28:33;;;;;;;17.93;7.27;;;;;;;;;;5072628;28;20441;-86
2021/11/18 04:31:04;;;;;;;31.07;8.07;;;;;;;;;;5086900;28;20477;-87
2021/11/18 04:33:30;;;;;;;18.93;7.13;;;;;;;;;;5054536;28;20024;-86
2021/11/18 04:35:55;;;;;;;17.60;6.70;;;;;;;;;;5086740;28;20021;-87
2021/11/18 04:38:20;;;;;;;21.77;8.13;;;;;;;;;;5074044;28;20381;-86
2021/11/18 04:40:46;;;;;;;19.67;6.97;;;;;;;;;;5051551;28;20024;-86
2021/11/18 04:43:11;;;;;;;19.00;7.23;;;;;;;;;;5086731;28;20029;-87
2021/11/18 04:45:37;;;;;;;18.23;7.00;;;;;;;;;;5086471;28;20025;-87
2021/11/18 04:48:02;;;;;;;28.13;8.07;;;;;;;;;;5052992;28;20025;-86
2021/11/18 04:50:27;;;;;;;24.73;8.70;;;;;;;;;;5086553;28;20078;-86
2021/11/18 04:52:53;;;;;;;25.17;8.23;;;;;;;;;;5054144;28;20457;-87
2021/11/18 04:55:20;;;;;;;22.70;7.67;;;;;;;;;;5080569;28;20071;-87
2021/11/18 04:57:45;;;;;;;20.73;7.63;;;;;;;;;;5073992;28;20076;-86
2021/11/18 05:00:13;;;;;;;20.63;6.60;;;;;;;;;;5086221;28;20017;-87
2021/11/18 05:02:39;;;;;;;22.83;7.83;;;;;;;;;;5086470;28;20025;-87
2021/11/18 05:05:05;;;;;;;27.10;7.30;;;;;;;;;;5085968;28;20040;-87
2021/11/18 05:07:30;;;;;;;20.23;7.13;;;;;;;;;;5086056;28;20029;-87
2021/11/18 05:09:56;;;;;;;25.67;7.27;;;;;;;;;;5086239;28;20028;-87
2021/11/18 05:12:21;;;;;;;24.77;7.37;;;;;;;;;;5052496;28;20059;-86
2021/11/18 05:14:46;;;;;;;26.60;7.67;;;;;;;;;;5074961;28;20700;-87
2021/11/18 05:17:11;;;;;;;24.97;8.00;;;;;;;;;;5086093;28;20017;-87
2021/11/18 05:19:37;;;;;;;25.73;8.33;;;;;;;;;;5085990;28;20013;-86
2021/11/18 05:22:02;;;;;;;27.03;7.70;;;;;;;;;;5085858;28;20029;-87
2021/11/18 05:24:27;;;;;;;22.67;7.80;;;;;;;;;;5085897;28;20472;-86
2021/11/18 05:26:53;;;;;;;27.27;7.83;;;;;;;;;;5085139;28;20024;-86
2021/11/18 05:29:18;;;;;;;20.90;7.37;;;;;;;;;;5086130;28;20028;-86
2021/11/18 05:31:43;;;;;;;34.43;7.67;;;;;;;;;;5085804;28;20025;-86
2021/11/18 05:34:08;;;;;;;20.13;6.73;;;;;;;;;;5085837;28;20021;-87
2021/11/18 05:36:33;;;;;;;26.67;7.23;;;;;;;;;;5053469;28;20020;-87
2021/11/18 05:38:59;;;;;;;31.37;8.50;;;;;;;;;;5070068;28;20394;-86
2021/11/18 05:41:24;;;;;;;23.63;7.47;;;;;;;;;;5074371;28;20025;-86
2021/11/18 05:43:49;;;;;;;28.57;8.43;;;;;;;;;;5083802;28;20062;-87
2021/11/18 05:46:15;;;;;;;36.57;11.77;;;;;;;;;;5084151;28;20020;-87
2021/11/18 05:48:41;;;;;;;29.77;11.40;;;;;;;;;;5050154;28;20076;-86
2021/11/18 05:51:07;;;;;;;27.17;10.40;;;;;;;;;;5050529;28;20044;-86
2021/11/18 05:53:35;;;;;;;32.63;8.17;;;;;;;;;;5050190;28;20021;-86
2021/11/18 05:56:02;;;;;;;24.57;8.00;;;;;;;;;;5082900;28;20424;-87
2021/11/18 05:58:28;;;;;;;28.20;7.87;;;;;;;;;;5076316;28;20048;-87
2021/11/18 06:00:53;;;;;;;25.20;7.90;;;;;;;;;;5072166;28;20551;-87
2021/11/18 06:03:18;;;;;;;23.20;8.33;;;;;;;;;;5084182;28;20020;-86
2021/11/18 06:05:44;;;;;;;21.83;7.37;;;;;;;;;;5085149;28;20025;-87
2021/11/18 06:08:09;;;;;;;26.87;8.83;;;;;;;;;;5085253;28;20771;-87
2021/11/18 06:10:35;;;;;;;28.57;9.17;;;;;;;;;;5085540;28;20021;-87
2021/11/18 06:13:01;;;;;;;33.33;8.47;;;;;;;;;;5084791;28;20546;-86
2021/11/18 06:15:27;;;;;;;28.60;8.50;;;;;;;;;;5085091;28;20040;-86
2021/11/18 06:17:52;;;;;;;24.90;7.57;;;;;;;;;;5085332;28;20017;-87
2021/11/18 06:20:18;;;;;;;33.57;9.93;;;;;;;;;;5051739;28;20357;-87
2021/11/18 06:22:44;;;;;;;34.73;9.70;;;;;;;;;;5078164;28;20021;-86
2021/11/18 06:25:09;;;;;;;28.60;9.30;;;;;;;;;;5085126;28;20034;-87
2021/11/18 06:27:36;;;;;;;29.43;8.83;;;;;;;;;;5085105;28;20029;-87
2021/11/18 06:30:02;;;;;;;30.93;9.40;;;;;;;;;;5052574;28;20028;-87
2021/11/18 06:32:28;;;;;;;40.03;9.27;;;;;;;;;;5084967;28;20431;-87
2021/11/18 06:34:53;;;;;;;35.43;9.20;;;;;;;;;;5051607;28;20057;-86
2021/11/18 06:37:18;;;;;;;24.80;8.27;;;;;;;;;;5050252;28;20055;-87
2021/11/18 06:39:43;;;;;;;31.23;9.03;;;;;;;;;;5046186;28;20018;-86
2021/11/18 06:42:10;;;;;;;21.23;8.43;;;;;;;;;;5051679;28;20388;-87
2021/11/18 06:44:35;;;;;;;27.53;8.97;;;;;;;;;;5080366;28;20720;-87
2021/11/18 06:47:01;;;;;;;31.40;9.70;;;;;;;;;;5049945;28;20029;-87
2021/11/18 06:49:26;;;;;;;35.07;9.10;;;;;;;;;;5088864;28;20032;-87
2021/11/18 06:51:51;;;;;;;28.97;8.97;;;;;;;;;;5083073;28;20018;-87
2021/11/18 06:54:17;;;;;;;24.93;8.33;;;;;;;;;;5045448;28;20477;-87
2021/11/18 06:56:43;;;;;;;27.50;7.57;;;;;;;;;;5039730;28;20052;-87
2021/11/18 06:59:09;;;;;;;37.83;8.50;;;;;;;;;;5047405;28;20048;-86
2021/11/18 07:01:35;;;;;;;28.63;9.47;;;;;;;;;;5088360;28;20021;-86
2021/11/18 07:04:00;;;;;;;39.93;9.87;;;;;;;;;;5081383;28;20029;-86
2021/11/18 07:06:26;;;;;;;33.00;9.13;;;;;;;;;;5088629;28;20358;-86
2021/11/18 07:08:52;;;;;;;29.60;8.80;;;;;;;;;;5070548;28;20544;-86
2021/11/18 07:11:18;;;;;;;29.83;9.20;;;;;;;;;;5048870;28;20014;-85
2021/11/18 07:13:43;;;;;;;29.57;9.17;;;;;;;;;;5035294;28;20022;-86
2021/11/18 07:16:12;;;;;;;27.83;8.57;;;;;;;;;;5038174;28;20068;-86
2021/11/18 07:18:38;;;;;;;23.90;8.40;;;;;;;;;;5053289;28;20422;-86
2021/11/18 07:21:03;;;;;;;29.13;9.07;;;;;;;;;;5082249;28;20052;-86
2021/11/18 07:23:28;;;;;;;24.20;8.73;;;;;;;;;;5044092;28;20029;-86
2021/11/18 07:25:55;;;;;;;22.37;8.13;;;;;;;;;;5033266;28;20049;-86
2021/11/18 07:28:21;;;;;;;26.40;8.80;;;;;;;;;;5035797;28;20029;-86
2021/11/18 07:30:47;;;;;;;42.13;9.17;;;;;;;;;;5079015;28;20071;-86
2021/11/18 07:33:13;;;;;;;30.33;8.63;;;;;;;;;;5074895;28;20025;-86
2021/11/18 07:35:39;;;;;;;28.90;9.40;;;;;;;;;;5045912;28;20453;-86
2021/11/18 07:38:04;;;;;;;27.13;8.70;;;;;;;;;;5067313;28;20079;-86
2021/11/18 07:40:29;;;;;;;37.27;9.30;;;;;;;;;;5036369;28;20021;-86
2021/11/18 07:42:55;;;;;;;30.83;9.33;;;;;;;;;;5035053;28;20037;-86
2021/11/18 07:45:22;;;;;;;32.33;9.03;;;;;;;;;;5049194;28;20396;-87
2021/11/18 07:47:48;;;;;;;30.10;8.50;;;;;;;;;;5077075;28;20144;-86
2021/11/18 07:50:13;;;;;;;30.13;9.40;;;;;;;;;;5079646;28;20025;-86
2021/11/18 07:52:39;;;;;;;34.60;8.77;;;;;;;;;;5065323;28;20021;-86
2021/11/18 07:55:05;;;;;;;31.53;9.77;;;;;;;;;;5076253;28;20167;-86
2021/11/18 07:57:30;;;;;;;30.47;9.57;;;;;;;;;;5048281;28;20053;-86
2021/11/18 07:59:56;;;;;;;30.67;9.13;;;;;;;;;;5038730;28;20017;-86
2021/11/18 08:02:21;;;;;;;37.20;9.77;;;;;;;;;;5087538;28;20043;-85
2021/11/18 08:04:46;;;;;;;31.17;9.03;;;;;;;;;;5087003;28;20070;-86
2021/11/18 08:07:11;;;;;;;40.53;9.60;;;;;;;;;;5073109;28;20480;-86
2021/11/18 08:09:36;;;;;;;29.07;9.07;;;;;;;;;;5081731;28;20461;-86
2021/11/18 08:12:07;;;;;;;30.80;9.47;;;;;;;;;;5048910;28;20028;-85
2021/11/18 08:14:32;;;;;;;26.07;8.70;;;;;;;;;;5046526;28;20060;-85
2021/11/18 08:16:58;;;;;;;30.33;8.77;;;;;;;;;;5053256;28;20453;-85
2021/11/18 08:19:23;;;;;;;36.20;10.47;;;;;;;;;;5087171;28;20629;-85
2021/11/18 08:21:49;;;;;;;36.50;8.57;;;;;;;;;;5053169;28;20017;-85
2021/11/18 08:24:16;;;;;;;34.10;9.13;;;;;;;;;;5076095;28;20039;-85
2021/11/18 08:26:42;;;;;;;30.53;9.60;;;;;;;;;;5086651;28;20116;-86
2021/11/18 08:29:07;;;;;;;28.40;8.90;;;;;;;;;;5072483;28;20121;-86
2021/11/18 08:31:33;;;;;;;32.20;8.33;;;;;;;;;;5031321;28;20475;-85
2021/11/18 08:33:58;;;;;;;30.70;8.13;;;;;;;;;;5072934;28;20075;-86
2021/11/18 08:36:24;;;;;;;33.73;8.93;;;;;;;;;;5074747;28;20025;-86
2021/11/18 08:38:49;;;;;;;29.13;7.77;;;;;;;;;;5036999;28;20036;-86
2021/11/18 08:41:16;;;;;;;31.57;7.43;;;;;;;;;;5038448;28;20025;-86
2021/11/18 08:43:42;;;;;;;30.33;7.80;;;;;;;;;;5032090;28;20026;-85
2021/11/18 08:46:09;;;;;;;27.43;8.50;;;;;;;;;;5069563;28;20412;-86
2021/11/18 08:48:34;;;;;;;28.53;8.60;;;;;;;;;;5033398;28;20381;-86
2021/11/18 08:51:00;;;;;;;23.90;8.77;;;;;;;;;;5034929;28;20056;-85
2021/11/18 08:53:28;;;;;;;33.33;8.80;;;;;;;;;;5030699;28;20075;-86
2021/11/18 08:55:53;;;;;;;27.60;8.17;;;;;;;;;;5033760;28;20027;-85
2021/11/18 08:58:21;;;;;;;34.40;8.47;;;;;;;;;;5034736;28;20461;-85
2021/11/18 09:00:48;;;;;;;30.07;8.03;;;;;;;;;;5031322;28;20389;-85
2021/11/18 09:03:13;;;;;;;35.23;7.43;;;;;;;;;;5049003;28;21106;-86
2021/11/18 09:05:39;;;;;;;28.07;7.90;;;;;;;;;;5081273;28;20024;-85
2021/11/18 09:08:04;;;;;;;34.63;8.07;;;;;;;;;;5081519;28;20083;-86
2021/11/18 09:10:30;;;;;;;25.90;8.10;;;;;;;;;;5072477;28;20566;-85
2021/11/18 09:12:56;;;;;;;25.70;7.90;;;;;;;;;;5078401;28;20055;-85
2021/11/18 09:15:23;;;;;;;22.57;7.27;;;;;;;;;;5070836;28;20044;-86
2021/11/18 09:17:48;;;;;;;23.73;6.67;;;;;;;;;;5082369;28;20028;-85
2021/11/18 09:20:15;;;;;;;24.50;7.33;;;;;;;;;;5081591;28;20021;-85
2021/11/18 09:22:41;;;;;;;30.80;7.90;;;;;;;;;;5041018;28;20027;-86
2021/11/18 09:25:09;;;;;;;29.20;7.10;;;;;;;;;;5080287;28;20017;-85
2021/11/18 09:27:37;;;;;;;28.47;7.13;;;;;;;;;;5026818;28;20024;-87
2021/11/18 09:30:05;;;;;;;30.60;6.77;;;;;;;;;;5037403;28;20059;-87
2021/11/18 09:32:32;;;;;;;24.43;6.57;;;;;;;;;;5038328;28;20104;-87
2021/11/18 09:34:57;;;;;;;25.93;6.97;;;;;;;;;;5083971;28;20021;-87
2021/11/18 09:37:23;;;;;;;28.53;8.17;;;;;;;;;;5064103;28;20027;-88
2021/11/18 09:39:49;;;;;;;32.33;6.87;;;;;;;;;;5084290;28;20013;-87
2021/11/18 09:42:16;;;;;;;26.90;7.03;;;;;;;;;;5084273;28;20055;-87
2021/11/18 09:44:54;;;;;;;25.77;7.40;;;;;;;;;;5084432;28;20147;-87
2021/11/18 09:47:38;;;;;;;27.13;7.33;;;;;;;;;;5040531;28;20036;-87
2021/11/18 09:50:22;;;;;;;24.27;7.37;;;;;;;;;;5042495;28;20049;-87
2021/11/18 09:52:57;;;;;;;25.50;6.70;;;;;;;;;;5050590;28;20031;-87
2021/11/18 09:55:22;;;;;;;29.30;6.40;;;;;;;;;;5083936;28;20044;-87
2021/11/18 09:57:54;;;;;;;19.77;5.00;;;;;;;;;;5047638;28;20079;-90
2021/11/18 10:00:31;;;;;;;15.57;5.30;;;;;;;;;;5030770;28;20018;-88
2021/11/18 10:03:02;;;;;;;13.68;5.03;;;;;;;;;;5047716;28;20033;-88
2021/11/18 10:05:31;;;;;;;8.05;2.72;;;;;;;;;;5042973;28;20025;-88
2021/11/18 10:07:58;;;;;;;13.63;3.75;;;;;;;;;;5033144;28;20550;-88
2021/11/18 10:10:32;;;;;;;16.33;4.40;;;;;;;;;;5072224;28;20028;-88
2021/11/18 10:13:07;;;;;;;8.13;2.63;;;;;;;;;;5084647;28;20132;-87
2021/11/18 10:15:37;;;;;;;24.27;5.95;;;;;;;;;;5051568;28;20086;-86
2021/11/18 10:18:06;;;;;;;24.95;5.95;;;;;;;;;;5051746;28;20051;-85
2021/11/18 10:20:34;;;;;;;13.65;4.28;;;;;;;;;;5051725;28;20108;-85
2021/11/18 10:23:05;;;;;;;13.73;3.75;;;;;;;;;;5052406;28;20040;-87
2021/11/18 10:25:33;;;;;;;21.73;4.88;;;;;;;;;;5066391;28;20365;-87
2021/11/18 10:28:00;;;;;;;23.02;5.35;;;;;;;;;;5033480;28;20029;-87
2021/11/18 10:30:43;;;;;;;18.88;3.35;;;;;;;;;;5036419;28;20296;-87
2021/11/18 10:33:10;;;;;;;22.58;5.47;;;;;;;;;;5071800;28;20533;-86
2021/11/18 10:35:43;;;;;;;21.50;4.57;;;;;;;;;;5036311;28;20029;-86
2021/11/18 10:38:12;;;;;;;11.20;3.35;;;;;;;;;;5066947;28;20032;-86
2021/11/18 10:40:48;;;;;;;21.08;4.68;;;;;;;;;;5049265;28;20017;-86
2021/11/18 10:43:15;;;;;;;14.73;4.13;;;;;;;;;;5079811;28;20488;-86
2021/11/18 10:45:48;;;;;;;19.20;4.80;;;;;;;;;;5052356;28;20013;-85
2021/11/18 10:48:22;;;;;;;17.05;3.72;;;;;;;;;;5074593;28;20036;-86
2021/11/18 10:50:51;;;;;;;8.90;2.83;;;;;;;;;;5048753;28;20032;-86
2021/11/18 10:53:20;;;;;;;17.92;5.20;;;;;;;;;;5052483;28;20035;-86
2021/11/18 10:55:47;;;;;;;24.30;4.75;;;;;;;;;;5050295;28;20033;-87
2021/11/18 10:58:25;;;;;;;12.05;4.35;;;;;;;;;;5084452;28;20032;-87
2021/11/18 11:01:00;;;;;;;14.55;3.53;;;;;;;;;;5052282;28;20375;-87
2021/11/18 11:03:30;;;;;;;14.73;3.55;;;;;;;;;;5040845;28;20697;-86
2021/11/18 11:06:07;;;;;;;22.60;5.72;;;;;;;;;;5043037;28;20425;-87
2021/11/18 11:08:33;;;;;;;14.90;3.50;;;;;;;;;;5050270;28;20043;-87
2021/11/18 11:11:02;;;;;;;21.95;4.75;;;;;;;;;;5051338;28;20029;-87
2021/11/18 11:13:46;;;;;;;26.73;5.50;;;;;;;;;;5081877;28;20021;-86
2021/11/18 11:16:20;;;;;;;20.60;3.22;;;;;;;;;;5050970;28;20029;-86
2021/11/18 11:18:53;;;;;;;21.60;3.78;;;;;;;;;;5051391;28;20025;-88
2021/11/18 11:21:19;;;;;;;16.63;3.28;;;;;;;;;;5074296;28;20468;-87
2021/11/18 11:24:03;;;;;;;7.38;2.45;;;;;;;;;;5050091;28;20028;-87
2021/11/18 11:26:47;;;;;;;23.25;5.90;;;;;;;;;;5054912;28;20476;-88
2021/11/18 11:29:15;;;;;;;8.52;2.75;;;;;;;;;;5046102;28;20112;-87
2021/11/18 11:31:50;;;;;;;17.52;2.90;;;;;;;;;;5048896;28;20079;-87
2021/11/18 11:34:15;;;;;;;8.85;2.72;;;;;;;;;;5054492;28;20021;-87
2021/11/18 11:36:53;;;;;;;19.73;4.97;;;;;;;;;;5049454;28;20032;-87
2021/11/18 11:39:36;;;;;;;24.60;6.15;;;;;;;;;;5087961;28;20027;-88
2021/11/18 11:42:08;;;;;;;18.73;5.57;;;;;;;;;;5054140;28;20112;-87
2021/11/18 11:44:45;;;;;;;6.73;2.23;;;;;;;;;;5052678;28;20036;-88
2021/11/18 11:47:33;;;;;;;24.58;5.90;;;;;;;;;;5078187;28;20630;-88
2021/11/18 11:50:07;;;;;;;20.50;4.20;;;;;;;;;;5084978;28;20017;-87
2021/11/18 11:52:32;;;;;;;15.07;5.07;;;;;;;;;;5045878;28;20017;-87
2021/11/18 11:55:00;;;;;;;21.35;4.53;;;;;;;;;;5044173;28;20027;-88
2021/11/18 11:57:32;;;;;;;4.72;1.02;;;;;;;;;;5055143;28;20017;-87
2021/11/18 12:00:04;;;;;;;11.68;3.00;;;;;;;;;;5051778;28;20629;-88
2021/11/18 12:02:33;;;;;;;20.83;4.47;;;;;;;;;;5044206;28;20028;-88
2021/11/18 12:05:04;;;;;;;11.93;2.97;;;;;;;;;;5047768;28;20051;-87
2021/11/18 12:07:41;;;;;;;17.63;3.78;;;;;;;;;;5039411;28;20036;-87
2021/11/18 12:10:10;;;;;;;7.00;2.25;;;;;;;;;;5045347;28;20053;-87
2021/11/18 12:12:38;;;;;;;10.10;3.80;;;;;;;;;;5034460;28;20104;-87
2021/11/18 12:15:23;;;;;;;24.17;7.25;;;;;;;;;;5034304;28;20431;-87
2021/11/18 12:18:23;;;;;;;19.05;4.95;;;;;;;;;;5046603;28;20487;-86
2021/11/18 12:20:49;;;;;;;7.18;1.83;;;;;;;;;;4982558;28;20022;-87
2021/11/18 12:23:15;;;;;;;22.58;4.90;;;;;;;;;;5026891;28;20029;-87
2021/11/18 12:25:45;;;;;;;21.17;4.47;;;;;;;;;;5073964;28;20028;-86
2021/11/18 12:28:10;;;;;;;27.63;5.97;;;;;;;;;;5041580;28;20491;-87
2021/11/18 12:30:44;;;;;;;15.90;4.72;;;;;;;;;;5041204;28;20103;-87
2021/11/18 12:33:10;;;;;;;18.42;4.43;;;;;;;;;;5043914;28;20025;-87
2021/11/18 12:35:38;;;;;;;11.20;2.85;;;;;;;;;;5051759;28;20378;-87
2021/11/18 12:38:22;;;;;;;15.20;2.92;;;;;;;;;;5048309;28;20040;-87
2021/11/18 12:41:07;;;;;;;18.35;3.38;;;;;;;;;;5049404;28;20022;-89
2021/11/18 12:43:51;;;;;;;14.60;3.20;;;;;;;;;;5048900;28;20100;-89
2021/11/18 12:46:16;;;;;;;24.60;3.13;;;;;;;;;;5053571;28;20110;-89
2021/11/18 12:49:03;;;;;;;14.45;3.13;;;;;;;;;;5047119;28;20057;-88
2021/11/18 12:51:44;;;;;;;16.83;3.03;;;;;;;;;;5053788;28;20495;-89
2021/11/18 12:54:09;;;;;;;12.75;2.78;;;;;;;;;;5048389;28;20020;-89
2021/11/18 12:56:50;;;;;;;18.48;2.92;;;;;;;;;;5050586;28;20156;-89
2021/11/18 12:59:35;;;;;;;12.77;1.90;;;;;;;;;;5033396;28;20607;-89
2021/11/18 13:02:01;;;;;;;21.58;3.03;;;;;;;;;;5048591;28;20029;-89
2021/11/18 13:04:30;;;;;;;17.75;2.80;;;;;;;;;;5080891;28;20031;-88
2021/11/18 13:06:56;;;;;;;18.92;2.47;;;;;;;;;;5087109;28;20124;-89
2021/11/18 13:09:21;;;;;;;21.92;1.98;;;;;;;;;;5074385;28;20053;-88
2021/11/18 13:11:51;;;;;;;4.72;1.33;;;;;;;;;;5051633;28;20017;-89
2021/11/18 13:14:24;;;;;;;21.45;2.25;;;;;;;;;;5068527;28;20030;-89
2021/11/18 13:16:51;;;;;;;4.68;1.05;;;;;;;;;;5066286;28;20063;-89
2021/11/18 13:19:23;;;;;;;11.45;1.55;;;;;;;;;;5043163;28;20017;-89
2021/11/18 13:21:48;;;;;;;;;;;;;;;;;;5053092;28;20017;-89
2021/11/18 13:24:13;;;;;;;11.90;1.63;;;;;;;;;;5052976;28;19904;-89
2021/11/18 13:26:49;;;;;;;17.60;2.40;;;;;;;;;;5053992;28;20250;-89
2021/11/18 13:29:17;;;;;;;16.25;2.05;;;;;;;;;;5081889;28;20033;-88
2021/11/18 13:31:49;;;;;;;18.92;2.83;;;;;;;;;;5046964;28;20403;-89
2021/11/18 13:34:17;;;;;;;10.85;2.20;;;;;;;;;;5045530;28;20045;-89
2021/11/18 13:36:44;;;;;;;18.52;2.63;;;;;;;;;;5032850;28;20028;-89
2021/11/18 13:39:19;;;;;;;13.85;2.63;;;;;;;;;;5052670;28;20052;-89
2021/11/18 13:41:46;;;;;;;10.10;1.88;;;;;;;;;;5073114;28;20075;-89
2021/11/18 13:44:23;;;;;;;12.13;1.88;;;;;;;;;;5051860;28;20108;-88
2021/11/18 13:46:50;;;;;;;18.35;2.65;;;;;;;;;;5077048;28;20017;-88
2021/11/18 13:49:15;;;;;;;17.48;2.63;;;;;;;;;;5071922;28;20025;-89
2021/11/18 13:51:40;;;;;;;9.52;1.88;;;;;;;;;;5034912;28;20074;-88
2021/11/18 13:54:08;;;;;;;15.15;2.08;;;;;;;;;;5044252;28;20456;-88
2021/11/18 13:56:39;;;;;;;15.32;2.50;;;;;;;;;;5046978;28;20024;-88
2021/11/18 13:59:12;;;;;;;17.65;3.10;;;;;;;;;;5032408;28;20079;-88
2021/11/18 14:01:40;;;;;;;14.82;2.67;;;;;;;;;;5036966;28;20032;-88
2021/11/18 14:04:10;;;;;;;21.60;2.92;;;;;;;;;;5034988;28;20029;-88
2021/11/18 14:06:50;;;;;;;4.30;0.95;;;;;;;;;;5071401;28;20535;-88
2021/11/18 14:09:20;;;;;;;18.42;3.03;;;;;;;;;;5048696;28;20036;-89
2021/11/18 14:11:51;;;;;;;11.27;2.03;;;;;;;;;;5051639;28;20098;-88
2021/11/18 14:14:35;;;;;;;9.80;1.98;;;;;;;;;;5074572;28;20021;-88
2021/11/18 14:17:18;;;;;;;14.27;2.30;;;;;;;;;;5047397;28;20020;-89
2021/11/18 14:19:54;;;;;;;16.95;2.50;;;;;;;;;;5045637;28;20029;-88
2021/11/18 14:22:27;;;;;;;13.52;2.35;;;;;;;;;;5060306;28;20021;-89
2021/11/18 14:24:53;;;;;;;14.55;2.08;;;;;;;;;;5085629;28;20029;-89
2021/11/18 14:27:19;;;;;;;17.90;2.58;;;;;;;;;;5079521;28;20025;-88
2021/11/18 14:29:53;;;;;;;17.00;2.65;;;;;;;;;;5052124;28;20032;-88
2021/11/18 14:32:19;;;;;;;19.42;3.40;;;;;;;;;;5067146;28;20024;-90
2021/11/18 14:34:49;;;;;;;16.20;2.65;;;;;;;;;;5048782;28;20017;-89
2021/11/18 14:37:17;;;;;;;14.32;2.38;;;;;;;;;;5047539;28;20037;-89